Time;durP1;ratioP1;P1;durP2;ratioP2;P2;SDS_P1;SDS_P2;PMS_P1;PMS_P2;Temp;Humidity;BMP_temperature;BMP_pressure;BME280_temperature;BME280_humidity;BME280_pressure;Samples;Min_cycle;Max_cycle;Signal;HPM_P1;HPM_P2
2024/01/31 00:00:35;;;;;;;0.30;0.30;;;0.70;99.90;;;;;;5091097;28;20212;-78
2024/01/31 00:03:01;;;;;;;0.30;0.30;;;0.70;99.90;;;;;;5089938;28;20249;-78
2024/01/31 00:05:26;;;;;;;0.30;0.30;;;0.70;99.90;;;;;;5089018;28;20180;-77
2024/01/31 00:07:52;;;;;;;0.30;0.30;;;0.70;99.90;;;;;;5091133;28;20230;-82
2024/01/31 00:10:18;;;;;;;0.30;0.30;;;0.60;99.90;;;;;;5089438;28;20176;-81
2024/01/31 00:12:43;;;;;;;0.90;0.90;;;0.60;99.90;;;;;;5088268;28;20488;-82
2024/01/31 00:15:09;;;;;;;0.30;0.30;;;0.50;99.90;;;;;;5089610;28;20422;-81
2024/01/31 00:17:35;;;;;;;0.30;0.30;;;0.50;99.90;;;;;;5091083;28;20584;-78
2024/01/31 00:20:00;;;;;;;0.30;0.30;;;0.50;99.90;;;;;;5089187;28;20609;-77
2024/01/31 00:22:26;;;;;;;0.30;0.30;;;0.50;99.90;;;;;;5091215;28;20516;-78
2024/01/31 00:24:52;;;;;;;0.30;0.30;;;0.40;99.90;;;;;;5090680;28;20181;-78
2024/01/31 00:27:18;;;;;;;0.30;0.30;;;0.50;99.90;;;;;;5089763;28;20448;-78
2024/01/31 00:29:44;;;;;;;0.30;0.30;;;0.50;99.90;;;;;;5090521;28;20417;-77
2024/01/31 00:32:10;;;;;;;0.30;0.30;;;0.50;99.90;;;;;;5091297;28;20234;-78
2024/01/31 00:34:36;;;;;;;0.30;0.30;;;0.40;99.90;;;;;;5090612;28;20672;-82
2024/01/31 00:37:01;;;;;;;0.30;0.30;;;0.40;99.90;;;;;;5090528;28;20172;-81
2024/01/31 00:39:31;;;;;;;0.30;0.30;;;0.40;99.90;;;;;;5089089;28;20917;-82
2024/01/31 00:41:57;;;;;;;0.30;0.30;;;0.40;99.90;;;;;;5090829;28;20226;-82
2024/01/31 00:44:23;;;;;;;0.30;0.30;;;0.40;99.90;;;;;;5088877;28;20205;-82
2024/01/31 00:46:49;;;;;;;0.30;0.30;;;0.30;99.90;;;;;;5089377;28;20633;-77
2024/01/31 00:49:15;;;;;;;0.30;0.30;;;0.30;99.90;;;;;;5088899;28;20929;-82
2024/01/31 00:51:44;;;;;;;0.30;0.30;;;0.20;99.90;;;;;;5088939;28;20184;-77
2024/01/31 00:54:12;;;;;;;0.30;0.30;;;0.20;99.90;;;;;;5088888;28;20204;-82
2024/01/31 00:56:38;;;;;;;0.30;0.30;;;0.20;99.90;;;;;;5088986;28;20200;-81
2024/01/31 00:59:04;;;;;;;0.30;0.30;;;0.20;99.90;;;;;;5088938;28;20299;-78
2024/01/31 01:01:29;;;;;;;0.30;0.30;;;0.20;99.90;;;;;;5089095;28;20286;-78
2024/01/31 01:03:55;;;;;;;0.30;0.30;;;0.10;99.90;;;;;;5090207;28;20979;-81
2024/01/31 01:06:21;;;;;;;0.30;0.30;;;0.10;99.90;;;;;;5087356;28;20243;-81
2024/01/31 01:08:47;;;;;;;0.30;0.30;;;0.10;99.90;;;;;;5090479;28;20565;-77
2024/01/31 01:11:13;;;;;;;0.30;0.30;;;0.00;99.90;;;;;;5088675;28;20191;-78
2024/01/31 01:13:38;;;;;;;6.57;6.00;;;0.00;99.90;;;;;;5090249;28;20282;-78
2024/01/31 01:16:04;;;;;;;0.30;0.30;;;-0.10;99.90;;;;;;5087293;28;20185;-82
2024/01/31 01:18:30;;;;;;;0.30;0.30;;;-0.10;99.90;;;;;;5089933;28;20195;-81
2024/01/31 01:20:55;;;;;;;0.30;0.30;;;-0.10;99.90;;;;;;5088205;28;20843;-82
2024/01/31 01:23:21;;;;;;;0.30;0.30;;;-0.10;99.90;;;;;;5089153;28;20272;-82
2024/01/31 01:25:47;;;;;;;0.30;0.30;;;-0.10;99.90;;;;;;5089401;28;20740;-78
2024/01/31 01:28:13;;;;;;;0.30;0.30;;;-0.10;99.90;;;;;;5090119;28;20228;-78
2024/01/31 01:30:38;;;;;;;0.30;0.30;;;-0.10;99.90;;;;;;5089585;28;20249;-78
2024/01/31 01:33:05;;;;;;;0.30;0.30;;;-0.10;99.90;;;;;;5089900;28;20199;-81
2024/01/31 01:35:30;;;;;;;0.30;0.30;;;-0.20;99.90;;;;;;5089704;28;20208;-81
2024/01/31 01:37:56;;;;;;;0.30;0.30;;;-0.20;99.90;;;;;;5088490;28;20250;-77
2024/01/31 01:40:22;;;;;;;0.30;0.30;;;-0.10;99.90;;;;;;5089120;28;20200;-82
2024/01/31 01:42:48;;;;;;;0.30;0.30;;;-0.20;99.90;;;;;;5089742;28;20192;-77
2024/01/31 01:45:13;;;;;;;0.30;0.30;;;-0.10;99.90;;;;;;5089659;28;20177;-78
2024/01/31 01:47:42;;;;;;;0.30;0.30;;;-0.20;99.90;;;;;;5088250;28;20429;-77
2024/01/31 01:50:09;;;;;;;0.30;0.30;;;-0.20;99.90;;;;;;5088270;28;20306;-77
2024/01/31 01:52:37;;;;;;;0.30;0.30;;;-0.20;99.90;;;;;;5089496;28;20188;-82
2024/01/31 01:55:04;;;;;;;0.30;0.30;;;-0.30;99.90;;;;;;5088078;28;20177;-78
2024/01/31 01:57:33;;;;;;;0.30;0.30;;;-0.30;99.90;;;;;;5089875;28;20237;-77
2024/01/31 02:00:00;;;;;;;0.30;0.30;;;-0.30;99.90;;;;;;5087889;28;20642;-81
2024/01/31 02:02:27;;;;;;;0.30;0.30;;;-0.40;99.90;;;;;;5088397;28;20183;-77
2024/01/31 02:04:53;;;;;;;0.30;0.30;;;-0.40;99.90;;;;;;5087781;28;20733;-82
2024/01/31 02:07:24;;;;;;;0.30;0.30;;;-0.40;99.90;;;;;;5089247;28;20685;-77
2024/01/31 02:09:52;;;;;;;0.30;0.30;;;-0.40;99.90;;;;;;5087603;28;20179;-77
2024/01/31 02:12:17;;;;;;;0.30;0.30;;;-0.50;99.90;;;;;;5089792;28;20169;-78
2024/01/31 02:14:47;;;;;;;0.30;0.30;;;-0.50;99.90;;;;;;5089231;28;20179;-78
2024/01/31 02:17:13;;;;;;;0.30;0.30;;;-0.50;99.90;;;;;;5087088;28;20223;-78
2024/01/31 02:19:39;;;;;;;0.30;0.30;;;-0.50;99.90;;;;;;5089572;28;20212;-81
2024/01/31 02:22:09;;;;;;;0.30;0.30;;;-0.50;99.90;;;;;;5087966;28;20172;-82
2024/01/31 02:24:34;;;;;;;0.30;0.30;;;-0.50;99.90;;;;;;5089139;28;20200;-81
2024/01/31 02:27:00;;;;;;;0.30;0.30;;;-0.50;99.90;;;;;;5089437;28;20450;-77
2024/01/31 02:29:26;;;;;;;0.30;0.30;;;-0.50;99.90;;;;;;5087900;28;20197;-82
2024/01/31 02:31:52;;;;;;;0.30;0.30;;;-0.50;99.90;;;;;;5089618;28;20203;-77
2024/01/31 02:34:18;;;;;;;0.30;0.30;;;-0.50;99.90;;;;;;5087719;28;20774;-77
2024/01/31 02:36:44;;;;;;;0.30;0.30;;;-0.50;99.90;;;;;;5091634;28;20181;-82
2024/01/31 02:39:10;;;;;;;0.30;0.30;;;-0.50;99.90;;;;;;5092811;28;20335;-82
2024/01/31 02:41:35;;;;;;;0.30;0.30;;;-0.50;99.90;;;;;;5091551;28;20187;-82
2024/01/31 02:44:01;;;;;;;0.30;0.30;;;-0.50;99.90;;;;;;5091762;28;20666;-81
2024/01/31 02:46:26;;;;;;;0.30;0.30;;;-0.50;99.90;;;;;;5091187;28;20656;-82
2024/01/31 02:48:52;;;;;;;0.30;0.30;;;-0.60;99.90;;;;;;5093382;28;20200;-82
2024/01/31 02:51:18;;;;;;;0.30;0.30;;;-0.50;99.90;;;;;;5092653;28;20176;-82
2024/01/31 02:53:44;;;;;;;0.30;0.30;;;-0.60;99.90;;;;;;5092522;28;20222;-81
2024/01/31 02:56:09;;;;;;;0.30;0.30;;;-0.60;99.90;;;;;;5092526;28;20219;-78
2024/01/31 02:58:36;;;;;;;0.30;0.30;;;-0.60;99.90;;;;;;5092471;28;20730;-81
2024/01/31 03:01:06;;;;;;;0.30;0.30;;;-0.60;99.90;;;;;;5092293;28;20211;-77
2024/01/31 03:03:32;;;;;;;0.30;0.30;;;-0.60;99.90;;;;;;5091797;28;20704;-77
2024/01/31 03:05:57;;;;;;;0.30;0.30;;;-0.70;99.90;;;;;;5091730;28;20260;-77
2024/01/31 03:08:23;;;;;;;0.60;0.60;;;-0.70;99.90;;;;;;5091932;28;20568;-77
2024/01/31 03:10:49;;;;;;;0.30;0.30;;;-0.80;99.90;;;;;;5092022;28;20168;-77
2024/01/31 03:13:14;;;;;;;0.30;0.30;;;-0.80;99.90;;;;;;5092290;28;20563;-82
2024/01/31 03:15:40;;;;;;;0.30;0.30;;;-0.80;99.90;;;;;;5092044;28;20602;-82
2024/01/31 03:18:06;;;;;;;0.30;0.30;;;-0.80;99.90;;;;;;5091248;28;20203;-82
2024/01/31 03:20:34;;;;;;;0.30;0.30;;;-0.80;99.90;;;;;;5091977;28;20269;-78
2024/01/31 03:23:00;;;;;;;0.30;0.30;;;-0.80;99.90;;;;;;5090684;28;20689;-78
2024/01/31 03:25:26;;;;;;;0.30;0.30;;;-0.80;99.90;;;;;;5091888;28;20229;-82
2024/01/31 03:27:52;;;;;;;0.30;0.30;;;-0.80;99.90;;;;;;5090696;28;20612;-81
2024/01/31 03:30:18;;;;;;;0.30;0.30;;;-0.80;99.90;;;;;;5090461;28;20716;-78
2024/01/31 03:32:44;;;;;;;0.30;0.30;;;-0.80;99.90;;;;;;5090723;28;20283;-81
2024/01/31 03:35:09;;;;;;;0.30;0.30;;;-0.80;99.90;;;;;;5090640;28;20173;-81
2024/01/31 03:37:35;;;;;;;0.30;0.30;;;-0.80;99.90;;;;;;5090373;28;20180;-77
2024/01/31 03:40:01;;;;;;;0.30;0.30;;;-0.80;99.90;;;;;;5091536;28;20208;-81
2024/01/31 03:42:26;;;;;;;0.30;0.30;;;-0.80;99.90;;;;;;5090703;28;20180;-77
2024/01/31 03:44:52;;;;;;;0.30;0.30;;;-0.80;99.90;;;;;;5090605;28;20657;-78
2024/01/31 03:47:18;;;;;;;0.30;0.30;;;-0.80;99.90;;;;;;5089411;28;20253;-81
2024/01/31 03:49:45;;;;;;;0.30;0.30;;;-0.80;99.90;;;;;;5091321;28;20180;-80
2024/01/31 03:52:11;;;;;;;0.30;0.30;;;-0.80;99.90;;;;;;5091961;28;20168;-81
2024/01/31 03:54:37;;;;;;;0.30;0.30;;;-0.90;99.90;;;;;;5091266;28;20208;-81
2024/01/31 03:57:03;;;;;;;0.30;0.30;;;-0.90;99.90;;;;;;5091835;28;20810;-84
2024/01/31 03:59:28;;;;;;;0.30;0.30;;;-0.90;99.90;;;;;;5091048;28;20212;-79
2024/01/31 04:01:54;;;;;;;0.30;0.30;;;-0.90;99.90;;;;;;5090147;28;20432;-78
2024/01/31 04:04:20;;;;;;;0.30;0.30;;;-0.90;99.90;;;;;;5091438;28;20230;-78
2024/01/31 04:06:46;;;;;;;0.30;0.30;;;-1.00;99.90;;;;;;5089088;28;20236;-82
2024/01/31 04:09:11;;;;;;;0.30;0.30;;;-1.00;99.90;;;;;;5091112;28;20197;-78
2024/01/31 04:11:37;;;;;;;0.30;0.30;;;-1.00;99.90;;;;;;5089971;28;20269;-78
2024/01/31 04:14:03;;;;;;;0.30;0.30;;;-1.00;99.90;;;;;;5091008;28;20652;-77
2024/01/31 04:16:29;;;;;;;0.30;0.30;;;-1.00;99.90;;;;;;5089539;28;20184;-78
2024/01/31 04:18:55;;;;;;;0.30;0.30;;;-1.10;99.90;;;;;;5089646;28;20988;-81
2024/01/31 04:21:22;;;;;;;0.30;0.30;;;-1.10;99.90;;;;;;5089991;28;20305;-77
2024/01/31 04:23:48;;;;;;;3.50;3.40;;;-1.10;99.90;;;;;;5090981;28;20738;-77
2024/01/31 04:26:13;;;;;;;0.30;0.30;;;-1.10;99.90;;;;;;5089221;28;20264;-77
2024/01/31 04:28:39;;;;;;;0.30;0.30;;;-1.10;99.90;;;;;;5090863;28;20279;-77
2024/01/31 04:31:12;;;;;;;0.30;0.30;;;-1.10;99.90;;;;;;5090928;28;20725;-82
2024/01/31 04:33:38;;;;;;;0.30;0.30;;;-1.10;99.90;;;;;;5090723;28;20834;-82
2024/01/31 04:36:03;;;;;;;0.30;0.30;;;-1.10;99.90;;;;;;5088873;28;20185;-77
2024/01/31 04:38:29;;;;;;;0.30;0.30;;;-1.00;99.90;;;;;;5089556;28;20197;-78
2024/01/31 04:40:55;;;;;;;0.30;0.30;;;-0.90;99.90;;;;;;5088643;28;20223;-82
2024/01/31 04:43:21;;;;;;;0.30;0.30;;;-0.80;99.90;;;;;;5091067;28;20200;-77
2024/01/31 04:45:46;;;;;;;0.30;0.30;;;-0.80;99.90;;;;;;5088815;28;20781;-78
2024/01/31 04:48:12;;;;;;;0.30;0.30;;;-0.70;99.90;;;;;;5089306;28;20415;-78
2024/01/31 04:50:38;;;;;;;0.30;0.30;;;-0.70;99.90;;;;;;5090255;28;20188;-77
2024/01/31 04:53:04;;;;;;;0.30;0.30;;;-0.70;99.90;;;;;;5088958;28;20314;-77
2024/01/31 04:55:29;;;;;;;0.30;0.30;;;-0.70;99.90;;;;;;5090192;28;20173;-82
2024/01/31 04:57:55;;;;;;;0.30;0.30;;;-0.70;99.90;;;;;;5090081;28;20199;-81
2024/01/31 05:00:23;;;;;;;0.30;0.30;;;-0.70;99.90;;;;;;5089791;28;20208;-81
2024/01/31 05:02:50;;;;;;;0.30;0.30;;;-0.70;99.90;;;;;;5090278;28;20669;-82
2024/01/31 05:05:16;;;;;;;0.30;0.30;;;-0.80;99.90;;;;;;5088700;28;20257;-79
2024/01/31 05:07:41;;;;;;;0.30;0.30;;;-0.80;99.90;;;;;;5088216;28;20263;-78
2024/01/31 05:10:08;;;;;;;0.30;0.30;;;-0.70;99.90;;;;;;5088460;28;20384;-78
2024/01/31 05:12:34;;;;;;;0.30;0.30;;;-0.80;99.90;;;;;;5088275;28;20173;-78
2024/01/31 05:15:00;;;;;;;0.30;0.30;;;-0.80;99.90;;;;;;5087146;28;20185;-79
2024/01/31 05:17:26;;;;;;;0.30;0.30;;;-0.70;99.90;;;;;;5088616;28;20653;-83
2024/01/31 05:19:52;;;;;;;0.30;0.30;;;-0.70;99.90;;;;;;5087995;28;20270;-83
2024/01/31 05:22:18;;;;;;;0.30;0.30;;;-0.70;99.90;;;;;;5087782;28;20185;-83
2024/01/31 05:24:44;;;;;;;0.30;0.30;;;-0.70;99.90;;;;;;5088547;28;20271;-79
2024/01/31 05:27:10;;;;;;;0.30;0.30;;;-0.70;99.90;;;;;;5109802;28;20263;-83
2024/01/31 05:29:36;;;;;;;0.30;0.30;;;-0.70;99.90;;;;;;5104549;28;20668;-79
2024/01/31 05:32:03;;;;;;;0.30;0.30;;;-0.60;99.90;;;;;;5105441;28;20225;-79
2024/01/31 05:34:29;;;;;;;0.30;0.30;;;-0.60;99.90;;;;;;5105147;28;20988;-79
2024/01/31 05:36:55;;;;;;;0.30;0.30;;;-0.70;99.90;;;;;;5108648;28;20176;-83
2024/01/31 05:39:21;;;;;;;0.30;0.30;;;-0.70;99.90;;;;;;5108885;27;20220;-83
2024/01/31 05:41:46;;;;;;;0.30;0.30;;;-0.70;99.90;;;;;;5105922;28;20203;-84
2024/01/31 05:44:12;;;;;;;0.30;0.30;;;-0.70;99.90;;;;;;5111610;27;20192;-85
2024/01/31 05:46:38;;;;;;;0.30;0.30;;;-0.70;99.90;;;;;;5114014;28;20211;-85
2024/01/31 05:49:03;;;;;;;0.30;0.30;;;-0.70;99.90;;;;;;5108251;28;20208;-79
2024/01/31 05:51:29;;;;;;;0.30;0.30;;;-0.70;99.90;;;;;;5100702;28;20198;-79
2024/01/31 05:53:55;;;;;;;0.30;0.30;;;-0.70;99.90;;;;;;5089002;28;20571;-80
2024/01/31 05:56:21;;;;;;;0.73;0.73;;;-0.70;99.90;;;;;;5100605;28;20179;-83
2024/01/31 05:58:47;;;;;;;0.30;0.30;;;-0.80;99.90;;;;;;5108642;28;20947;-78
2024/01/31 06:01:13;;;;;;;0.30;0.30;;;-0.80;99.90;;;;;;5107110;28;20688;-79
2024/01/31 06:03:39;;;;;;;0.30;0.30;;;-1.00;99.90;;;;;;5109057;28;20207;-83
2024/01/31 06:06:06;;;;;;;0.30;0.30;;;-1.10;99.90;;;;;;5113880;28;20505;-79
2024/01/31 06:08:32;;;;;;;0.30;0.30;;;-1.30;99.90;;;;;;5123628;28;20211;-79
2024/01/31 06:11:03;;;;;;;0.30;0.30;;;-1.40;99.90;;;;;;5111148;27;20783;-84
2024/01/31 06:13:29;;;;;;;0.30;0.30;;;-1.50;99.90;;;;;;5105905;28;20668;-84
2024/01/31 06:15:56;;;;;;;0.30;0.30;;;-1.50;99.90;;;;;;5096175;28;20251;-83
2024/01/31 06:18:22;;;;;;;0.30;0.30;;;-1.50;99.90;;;;;;5111383;28;20199;-83
2024/01/31 06:20:49;;;;;;;0.30;0.30;;;-1.50;99.90;;;;;;5110770;28;20314;-83
2024/01/31 06:23:15;;;;;;;0.30;0.30;;;-1.50;99.90;;;;;;5105497;28;20204;-84
2024/01/31 06:25:41;;;;;;;0.30;0.30;;;-1.50;99.90;;;;;;5106026;28;20217;-79
2024/01/31 06:28:07;;;;;;;0.30;0.30;;;-1.50;99.90;;;;;;5108399;28;20443;-83
2024/01/31 06:30:40;;;;;;;0.30;0.30;;;-1.50;99.90;;;;;;5106565;28;20668;-83
2024/01/31 06:33:07;;;;;;;0.30;0.30;;;-1.50;99.90;;;;;;5107196;28;20459;-79
2024/01/31 06:35:38;;;;;;;0.30;0.30;;;-1.50;99.90;;;;;;5106341;28;20195;-83
2024/01/31 06:38:04;;;;;;;0.30;0.30;;;-1.40;99.90;;;;;;5111817;27;20569;-79
2024/01/31 06:40:30;;;;;;;0.30;0.30;;;-1.40;99.90;;;;;;5122536;27;20228;-80
2024/01/31 06:42:57;;;;;;;0.30;0.30;;;-1.50;99.90;;;;;;5108685;28;20266;-83
2024/01/31 06:45:24;;;;;;;0.32;0.32;;;-1.50;99.90;;;;;;5111036;27;20396;-79
2024/01/31 06:47:53;;;;;;;0.30;0.30;;;-1.40;99.90;;;;;;5103207;28;20215;-79
2024/01/31 06:50:20;;;;;;;0.30;0.30;;;-1.40;99.90;;;;;;5111028;27;20232;-79
2024/01/31 06:52:46;;;;;;;0.30;0.30;;;-1.30;99.90;;;;;;5106968;28;20204;-83
2024/01/31 06:55:15;;;;;;;0.30;0.30;;;-1.30;99.90;;;;;;5105657;28;20172;-79
2024/01/31 06:57:42;;;;;;;0.30;0.30;;;-1.30;99.90;;;;;;5100563;28;20208;-79
2024/01/31 07:00:10;;;;;;;0.30;0.30;;;-1.30;99.90;;;;;;5098666;28;20211;-78
2024/01/31 07:02:36;;;;;;;0.30;0.30;;;-1.20;99.90;;;;;;5092922;28;20191;-83
2024/01/31 07:05:02;;;;;;;0.30;0.30;;;-1.20;99.90;;;;;;5100842;28;20179;-79
2024/01/31 07:07:27;;;;;;;0.30;0.30;;;-1.20;99.90;;;;;;5100233;28;20235;-83
2024/01/31 07:09:53;;;;;;;0.30;0.30;;;-1.10;99.90;;;;;;5128496;27;20426;-83
2024/01/31 07:12:19;;;;;;;0.30;0.30;;;-1.10;99.90;;;;;;5098592;28;20179;-79
2024/01/31 07:14:44;;;;;;;0.30;0.30;;;-1.00;99.90;;;;;;5093503;28;20173;-80
2024/01/31 07:17:10;;;;;;;0.30;0.30;;;-0.90;99.90;;;;;;5093229;28;20428;-79
2024/01/31 07:19:36;;;;;;;0.30;0.30;;;-0.90;99.90;;;;;;5093630;28;20207;-83
2024/01/31 07:22:02;;;;;;;0.30;0.30;;;-0.70;99.90;;;;;;5092311;28;20423;-83
2024/01/31 07:24:27;;;;;;;0.30;0.30;;;-0.50;99.90;;;;;;5100362;28;20444;-79
2024/01/31 07:26:53;;;;;;;0.40;0.40;;;-0.30;99.90;;;;;;5106224;28;20180;-79
2024/01/31 07:29:19;;;;;;;0.37;0.37;;;-0.10;99.90;;;;;;5119920;27;20692;-79
2024/01/31 07:31:45;;;;;;;0.30;0.30;;;0.20;99.90;;;;;;5120801;27;20958;-83
2024/01/31 07:34:10;;;;;;;0.50;0.50;;;0.40;99.90;;;;;;5104401;28;20211;-79
2024/01/31 07:36:36;;;;;;;0.57;0.57;;;0.70;99.90;;;;;;5101442;28;20176;-83
2024/01/31 07:39:02;;;;;;;1.07;1.07;;;1.00;99.90;;;;;;5104627;28;20242;-80
2024/01/31 07:41:27;;;;;;;0.37;0.33;;;1.10;99.90;;;;;;5101658;28;20366;-79
2024/01/31 07:43:53;;;;;;;0.30;0.30;;;1.40;99.90;;;;;;5102879;28;20609;-83
2024/01/31 07:46:19;;;;;;;4.77;4.67;;;1.70;99.90;;;;;;5108046;28;20557;-84
2024/01/31 07:48:44;;;;;;;0.30;0.30;;;2.00;99.90;;;;;;5102220;28;20207;-83
2024/01/31 07:51:10;;;;;;;0.80;0.80;;;2.40;99.90;;;;;;5101947;28;20180;-81
2024/01/31 07:53:37;;;;;;;0.30;0.30;;;3.00;99.90;;;;;;5105111;28;20207;-80
2024/01/31 07:56:03;;;;;;;43.70;40.40;;;3.60;99.90;;;;;;5098715;28;20172;-80
2024/01/31 07:58:30;;;;;;;0.50;0.50;;;4.40;99.90;;;;;;5094399;28;20203;-83
2024/01/31 08:00:55;;;;;;;1.02;1.02;;;5.10;99.90;;;;;;5101080;28;20471;-82
2024/01/31 08:03:21;;;;;;;18.10;17.20;;;5.80;99.90;;;;;;5105433;28;20214;-80
2024/01/31 08:05:47;;;;;;;3.43;3.33;;;6.40;99.90;;;;;;5100918;28;20244;-80
2024/01/31 08:08:13;;;;;;;4.70;4.27;;;7.00;99.90;;;;;;5106183;27;20224;-84
2024/01/31 08:10:38;;;;;;;2.27;2.17;;;7.70;99.90;;;;;;5099275;28;20228;-80
2024/01/31 08:13:05;;;;;;;6.70;6.43;;;8.30;99.90;;;;;;5099845;28;20445;-84
2024/01/31 08:15:31;;;;;;;0.50;0.50;;;9.00;99.90;;;;;;5107723;27;20278;-84
2024/01/31 08:17:57;;;;;;;1.05;1.05;;;9.60;99.90;;;;;;5092516;28;20522;-80
2024/01/31 08:20:23;;;;;;;0.68;0.68;;;10.30;99.90;;;;;;5088017;28;21277;-80
2024/01/31 08:22:48;;;;;;;0.93;0.93;;;10.80;99.90;;;;;;5101744;27;20494;-84
2024/01/31 08:25:14;;;;;;;0.40;0.33;;;11.50;99.90;;;;;;5093353;28;20653;-81
2024/01/31 08:27:39;;;;;;;2.30;2.20;;;12.10;99.90;;;;;;5098776;28;20208;-84
2024/01/31 08:30:06;;;;;;;0.80;0.80;;;12.60;99.90;;;;;;5105504;28;20179;-80
2024/01/31 08:32:35;;;;;;;0.75;0.75;;;13.00;99.90;;;;;;5104406;28;20267;-85
2024/01/31 08:35:03;;;;;;;2.70;2.60;;;13.50;99.90;;;;;;5106141;28;20268;-81
2024/01/31 08:37:30;;;;;;;5.50;5.03;;;13.90;98.80;;;;;;5104986;27;20789;-84
2024/01/31 08:39:56;;;;;;;0.73;0.73;;;14.40;97.90;;;;;;5091162;28;20537;-80
2024/01/31 08:42:23;;;;;;;0.40;0.40;;;14.70;96.60;;;;;;5100385;28;20940;-80
2024/01/31 08:44:48;;;;;;;9.97;7.30;;;15.10;95.60;;;;;;5105046;28;20454;-84
2024/01/31 08:47:14;;;;;;;1.43;1.43;;;15.40;95.20;;;;;;5101777;28;20440;-84
2024/01/31 08:49:39;;;;;;;1.73;1.63;;;15.80;94.80;;;;;;5108777;27;20207;-80
2024/01/31 08:52:06;;;;;;;16.37;2.93;;;16.00;93.70;;;;;;5101518;28;20261;-79
2024/01/31 08:54:31;;;;;;;0.40;0.30;;;16.30;92.90;;;;;;5117410;27;20269;-83
2024/01/31 08:56:57;;;;;;;0.70;0.70;;;16.70;93.00;;;;;;5097202;28;20436;-83
2024/01/31 08:59:23;;;;;;;4.93;4.00;;;17.00;91.80;;;;;;5098768;27;20646;-80
2024/01/31 09:01:48;;;;;;;0.80;0.80;;;17.30;91.60;;;;;;5099697;28;20195;-84
2024/01/31 09:04:14;;;;;;;0.80;0.80;;;17.60;91.20;;;;;;5101511;28;20204;-80
2024/01/31 09:06:42;;;;;;;3.33;3.03;;;17.90;90.30;;;;;;5102240;28;20398;-83
2024/01/31 09:09:09;;;;;;;6.17;5.67;;;18.20;90.10;;;;;;5101300;28;20678;-83
2024/01/31 09:11:36;;;;;;;0.83;0.83;;;18.50;89.00;;;;;;5104352;28;20485;-79
2024/01/31 09:14:02;;;;;;;0.63;0.63;;;18.60;88.30;;;;;;5104150;28;20512;-83
2024/01/31 09:16:28;;;;;;;0.63;0.63;;;18.80;87.30;;;;;;5099920;28;20468;-83
2024/01/31 09:18:53;;;;;;;8.73;4.93;;;19.00;87.00;;;;;;5096578;28;20223;-80
2024/01/31 09:21:27;;;;;;;1.87;1.77;;;19.30;87.00;;;;;;5105549;28;20270;-83
2024/01/31 09:23:53;;;;;;;2.37;2.27;;;19.60;85.10;;;;;;5101219;28;20284;-80
2024/01/31 09:26:19;;;;;;;1.17;1.07;;;20.00;83.80;;;;;;5096318;28;20455;-80
2024/01/31 09:28:45;;;;;;;10.33;5.90;;;20.20;83.60;;;;;;5094867;28;20525;-80
2024/01/31 09:31:10;;;;;;;0.40;0.30;;;20.50;82.00;;;;;;5083330;28;20258;-80
2024/01/31 09:33:36;;;;;;;1.40;1.03;;;20.70;80.50;;;;;;5104533;28;20242;-80
2024/01/31 09:36:02;;;;;;;4.93;1.90;;;21.00;79.80;;;;;;5104453;28;20193;-84
2024/01/31 09:38:27;;;;;;;2.87;2.00;;;21.10;78.90;;;;;;5121735;27;20397;-84
2024/01/31 09:40:53;;;;;;;0.40;0.40;;;21.10;78.50;;;;;;5100861;28;20222;-80
2024/01/31 09:43:20;;;;;;;2.73;2.50;;;21.00;78.60;;;;;;5103327;27;20719;-80
2024/01/31 09:45:47;;;;;;;2.50;2.33;;;20.90;78.20;;;;;;5094266;28;20279;-84
2024/01/31 09:48:14;;;;;;;2.57;2.47;;;20.80;77.80;;;;;;5102401;28;20815;-80
2024/01/31 09:50:39;;;;;;;2.77;2.63;;;20.60;78.10;;;;;;5100746;28;20994;-80
2024/01/31 09:53:06;;;;;;;0.40;0.40;;;20.20;77.90;;;;;;5094373;28;20448;-83
2024/01/31 09:55:34;;;;;;;1.50;1.33;;;19.60;79.20;;;;;;5104263;28;20362;-80
2024/01/31 09:58:02;;;;;;;0.40;0.33;;;18.80;79.00;;;;;;5099514;28;20461;-83
2024/01/31 10:00:28;;;;;;;0.43;0.40;;;18.00;80.50;;;;;;5118957;28;20473;-80
2024/01/31 10:02:53;;;;;;;0.40;0.30;;;17.40;83.20;;;;;;5099411;28;20457;-83
2024/01/31 10:05:19;;;;;;;1.33;1.27;;;17.00;82.80;;;;;;5103232;28;20550;-80
2024/01/31 10:07:45;;;;;;;0.40;0.30;;;16.80;83.00;;;;;;5099954;28;20305;-79
2024/01/31 10:10:10;;;;;;;0.40;0.20;;;16.70;82.20;;;;;;5101330;28;20223;-83
2024/01/31 10:12:38;;;;;;;1.57;1.50;;;16.50;82.50;;;;;;5104014;28;20200;-83
2024/01/31 10:15:07;;;;;;;0.40;0.20;;;16.20;83.00;;;;;;5098319;28;20203;-83
2024/01/31 10:17:34;;;;;;;7.00;1.40;;;16.00;83.60;;;;;;5107218;27;20715;-83
2024/01/31 10:20:06;;;;;;;0.83;0.83;;;15.70;83.10;;;;;;5092595;28;20467;-82
2024/01/31 10:22:34;;;;;;;0.50;0.50;;;15.40;84.10;;;;;;5094292;28;20648;-79
2024/01/31 10:25:00;;;;;;;0.40;0.30;;;15.20;83.30;;;;;;5094612;28;20423;-83
2024/01/31 10:27:26;;;;;;;1.17;1.17;;;15.00;83.40;;;;;;5116325;27;20941;-79
2024/01/31 10:29:53;;;;;;;0.30;0.30;;;14.80;83.70;;;;;;5096480;28;20429;-83
2024/01/31 10:32:20;;;;;;;1.23;0.83;;;14.40;84.90;;;;;;5101841;28;20176;-83
2024/01/31 10:34:47;;;;;;;2.83;1.60;;;14.10;85.10;;;;;;5097731;28;20936;-79
2024/01/31 10:37:14;;;;;;;0.40;0.30;;;13.80;85.30;;;;;;5111365;28;20462;-83
2024/01/31 10:39:40;;;;;;;1.23;1.23;;;13.50;85.50;;;;;;5101322;28;20463;-83
2024/01/31 10:42:06;;;;;;;0.30;0.20;;;13.20;85.70;;;;;;5100746;28;20440;-80
2024/01/31 10:44:37;;;;;;;0.40;0.30;;;13.00;87.20;;;;;;5096057;28;20448;-79
2024/01/31 10:47:04;;;;;;;0.97;0.97;;;12.90;87.00;;;;;;5100743;28;20882;-83
2024/01/31 10:49:30;;;;;;;0.40;0.20;;;12.80;87.30;;;;;;5101688;28;20965;-83
2024/01/31 10:51:58;;;;;;;0.40;0.30;;;12.70;88.10;;;;;;5088009;28;20468;-79
2024/01/31 10:54:29;;;;;;;0.70;0.70;;;12.60;88.90;;;;;;5098737;28;20196;-79
2024/01/31 10:56:56;;;;;;;1.07;1.07;;;12.60;88.20;;;;;;5104753;28;20460;-78
2024/01/31 10:59:22;;;;;;;0.30;0.20;;;12.60;88.50;;;;;;5103181;28;20868;-83
2024/01/31 11:01:58;;;;;;;0.43;0.43;;;12.60;88.50;;;;;;5104426;28;20527;-80
2024/01/31 11:04:24;;;;;;;0.43;0.40;;;12.50;88.10;;;;;;5107724;28;21078;-83
2024/01/31 11:06:51;;;;;;;2.30;2.20;;;12.40;87.60;;;;;;5106817;28;20787;-83
2024/01/31 11:09:26;;;;;;;0.40;0.20;;;12.30;88.10;;;;;;5107529;28;20965;-83
2024/01/31 11:12:05;;;;;;;0.30;0.20;;;12.20;88.60;;;;;;5108027;28;20511;-83
2024/01/31 11:14:32;;;;;;;0.30;0.20;;;12.10;87.80;;;;;;5115286;27;20493;-83
2024/01/31 11:17:09;;;;;;;0.30;0.20;;;12.00;88.60;;;;;;5108173;27;20443;-79
2024/01/31 11:19:41;;;;;;;17.03;6.00;;;12.00;88.10;;;;;;5105945;27;20460;-83
2024/01/31 11:22:07;;;;;;;0.30;0.30;;;11.90;88.00;;;;;;5106980;28;20432;-83
2024/01/31 11:24:34;;;;;;;0.30;0.20;;;11.70;88.70;;;;;;5109495;27;20464;-79
2024/01/31 11:27:03;;;;;;;0.40;0.30;;;11.60;89.00;;;;;;5107691;28;20498;-79
2024/01/31 11:29:30;;;;;;;1.17;0.87;;;11.60;89.20;;;;;;5103025;28;21023;-83
2024/01/31 11:31:57;;;;;;;1.33;1.23;;;11.60;87.80;;;;;;5105084;28;20436;-80
2024/01/31 11:34:24;;;;;;;0.30;0.20;;;11.50;89.30;;;;;;5101912;28;20443;-79
2024/01/31 11:36:49;;;;;;;0.60;0.60;;;11.50;89.30;;;;;;5101827;28;20948;-79
2024/01/31 11:39:15;;;;;;;0.40;0.40;;;11.50;89.50;;;;;;5103905;28;20455;-79
2024/01/31 11:41:41;;;;;;;0.30;0.30;;;11.60;89.80;;;;;;5102992;28;20274;-83
2024/01/31 11:44:07;;;;;;;0.40;0.30;;;11.60;89.80;;;;;;5102140;28;20200;-79
2024/01/31 11:46:32;;;;;;;0.30;0.20;;;11.70;90.30;;;;;;5100427;28;20660;-80
2024/01/31 11:48:58;;;;;;;0.97;0.97;;;11.70;90.00;;;;;;5112941;27;20402;-80
2024/01/31 11:51:24;;;;;;;0.30;0.20;;;11.70;90.10;;;;;;5113980;27;20187;-84
2024/01/31 11:53:50;;;;;;;0.30;0.20;;;11.80;90.30;;;;;;5093973;28;21022;-79
2024/01/31 11:56:16;;;;;;;0.30;0.27;;;11.90;89.60;;;;;;5102386;28;20627;-80
2024/01/31 11:58:41;;;;;;;1.80;1.70;;;11.90;89.60;;;;;;5100497;28;20249;-84
2024/01/31 12:01:07;;;;;;;0.30;0.20;;;12.00;89.80;;;;;;5097610;28;20219;-83
2024/01/31 12:03:33;;;;;;;0.40;0.40;;;12.00;89.80;;;;;;5098985;28;20522;-80
2024/01/31 12:05:59;;;;;;;0.30;0.20;;;12.00;89.70;;;;;;5090448;28;20199;-79
2024/01/31 12:08:27;;;;;;;4.00;3.70;;;12.00;90.10;;;;;;5093386;28;21109;-80
2024/01/31 12:10:57;;;;;;;4.10;3.80;;;12.00;89.80;;;;;;5092824;28;20176;-83
2024/01/31 12:13:22;;;;;;;0.30;0.30;;;12.00;90.20;;;;;;5095681;28;20555;-79
2024/01/31 12:15:48;;;;;;;0.30;0.20;;;12.00;90.00;;;;;;5096125;28;20436;-83
2024/01/31 12:18:15;;;;;;;0.40;0.30;;;11.90;90.20;;;;;;5099806;28;20215;-83
2024/01/31 12:20:41;;;;;;;2.57;2.47;;;11.90;90.20;;;;;;5114902;27;20366;-79
2024/01/31 12:23:07;;;;;;;0.60;0.60;;;11.90;90.00;;;;;;5099574;28;20452;-83
2024/01/31 12:25:33;;;;;;;0.30;0.20;;;11.90;90.10;;;;;;5096382;28;21112;-79
2024/01/31 12:28:00;;;;;;;0.30;0.20;;;11.90;90.00;;;;;;5110755;27;20859;-83
2024/01/31 12:30:26;;;;;;;0.30;0.30;;;11.90;89.70;;;;;;5099214;28;20181;-80
2024/01/31 12:32:52;;;;;;;0.60;0.60;;;11.90;90.00;;;;;;5095301;28;20432;-79
2024/01/31 12:35:18;;;;;;;34.20;30.60;;;11.80;89.70;;;;;;5097710;28;20462;-80
2024/01/31 12:37:45;;;;;;;0.30;0.20;;;11.80;90.10;;;;;;5097048;28;20448;-83
2024/01/31 12:40:11;;;;;;;2.50;0.97;;;11.70;90.00;;;;;;5097788;28;20574;-80
2024/01/31 12:42:37;;;;;;;0.60;0.60;;;11.70;90.40;;;;;;5102137;28;20956;-84